Flight Track Log - Related Links

Times and Time Zones

All times are in EDT time to prevent confusion due to time zone crossing. See the AAL2007 flight status page for this flight to view local times or setup timezone preferences in your user account.

Time Position Orientation Groundspeed Altitude Reporting Facility
EDT Latitude Longitude Course Direction KTS MPH feet Rate Location/Type
Sun 06:10:00 PM 41.9500 -87.9000 207° Southwest 178 205 1,400  Level Chicago TRACON
Sun 06:11:00 PM 41.9000 -87.9000 180° South 203 234 3,400 1,686 Climbing Chicago TRACON
Sun 06:12:00 PM 41.6963 -88.1923 201° Southwest  Level Estimated
Sun 06:12:01 PM 41.8333 -87.9000 180° South 269 310 4,800  Level Chicago TRACON
Sun 06:12:19 PM 41.8100 -87.9000 180° South 236 272 5,000 1,200 Climbing Chicago Center
Sun 06:13:00 PM 41.6010 -88.2869 197° South  Level Estimated
Sun 06:13:21 PM 41.7364 -87.9256 195° South 272 313 6,400  Level Chicago Center
Sun 06:14:00 PM 41.5057 -88.3812 194° South  Level Estimated
Sun 06:14:23 PM 41.6697 -87.9800 211° Southwest 280 322 9,000  Level Chicago Center
Sun 06:15:00 PM 41.4102 -88.4753 207° Southwest  Level Estimated
Sun 06:15:25 PM 41.5781 -88.0478 209° Southwest 314 361 11,400  Level Chicago Center
Sun 06:16:27 PM 41.4944 -88.1119 210° Southwest 348 400 13,600 2,160 Climbing Chicago Center
Sun 06:17:30 PM 41.4081 -88.1753 209° Southwest 371 427 15,900 2,352 Climbing Chicago Center
Sun 06:18:32 PM 41.2892 -88.2322 200° South 386 444 18,500 2,177 Climbing Chicago Center
Sun 06:19:34 PM 41.1861 -88.2794 199° South 394 453 20,400 1,548 Climbing Chicago Center
Sun 06:20:36 PM 41.0767 -88.3292 199° South 410 472 21,700 1,355 Climbing Chicago Center
Sun 06:21:38 PM 40.9639 -88.3789 198° South 424 488 23,200 1,452 Climbing Chicago Center
Sun 06:22:40 PM 40.8478 -88.4308 199° South 439 505 24,700 1,500 Climbing Chicago Center
Sun 06:23:42 PM 40.7125 -88.5122 205° Southwest 449 517 26,300 1,355 Climbing Chicago Center
Sun 06:24:44 PM 40.6228 -88.6292 225° Southwest 453 521 27,500 1,258 Climbing Chicago Center
Sun 06:25:46 PM 40.5231 -88.7331 218° Southwest 457 526 28,900 1,258 Climbing Chicago Center
Sun 06:26:48 PM 40.4161 -88.8472 219° Southwest 467 537 30,100 1,210 Climbing Chicago Center
Sun 06:27:50 PM 40.3164 -88.9564 220° Southwest 466 536 31,400 871 Climbing Chicago Center
Sun 06:28:52 PM 40.2164 -89.0631 219° Southwest 461 531 31,900 290 Climbing Chicago Center
Sun 06:29:54 PM 40.1158 -89.1700 219° Southwest 462 532 32,000 48 Climbing Chicago Center
Sun 06:30:56 PM 40.0153 -89.2767 219° Southwest 465 535 32,000  Level Chicago Center
Sun 06:31:58 PM 39.8950 -89.4047 219° Southwest 463 533 32,000  Level Chicago Center
Sun 06:33:01 PM 39.7939 -89.5114 219° Southwest 466 536 32,000  Level Chicago Center
Sun 06:34:03 PM 39.6933 -89.6133 218° Southwest 460 529 32,000  Level Chicago Center
Sun 06:34:58 PM 39.6075 -89.7089 221° Southwest 463 533 32,000  Level Kansas City Center
Sun 06:36:01 PM 39.5067 -89.8136 219° Southwest 465 535 32,000  Level Kansas City Center
Sun 06:37:03 PM 39.3864 -89.9386 219° Southwest 464 534 32,000  Level Kansas City Center
Sun 06:38:05 PM 39.2867 -90.0447 219° Southwest 466 536 32,000 48 Level Kansas City Center
Sun 06:39:07 PM 39.1856 -90.1486 219° Southwest 466 536 32,100 48 Climbing Kansas City Center
Sun 06:40:09 PM 39.0858 -90.2528 219° Southwest 464 534 32,100 -48 Level Kansas City Center
Sun 06:41:11 PM 38.9856 -90.3558 219° Southwest 465 535 32,000 -97 Descending Kansas City Center
Sun 06:42:13 PM 38.8828 -90.4625 219° Southwest 457 526 31,900 -48 Descending Kansas City Center
Sun 06:43:15 PM 38.7842 -90.5717 221° Southwest 463 533 31,900 48 Level Kansas City Center
Sun 06:44:17 PM 38.6808 -90.6906 222° Southwest 459 528 32,000 48 Climbing Kansas City Center
Sun 06:45:19 PM 38.5864 -90.7997 222° Southwest 456 525 32,000  Level Kansas City Center
Sun 06:46:21 PM 38.4922 -90.9078 222° Southwest 459 528 32,000 48 Level Kansas City Center
Sun 06:47:23 PM 38.3772 -91.0372 221° Southwest 463 533 32,100  Climbing Kansas City Center
Sun 06:48:25 PM 38.2833 -91.1442 222° Southwest 455 524 32,000 -97 Descending Kansas City Center
Sun 06:49:27 PM 38.1883 -91.2506 221° Southwest 455 524 31,900 -48 Descending Kansas City Center
Sun 06:50:29 PM 38.0983 -91.3517 221° Southwest 447 514 31,900 48 Level Kansas City Center
Sun 06:51:31 PM 37.9850 -91.4808 222° Southwest 452 520 32,000 48 Climbing Kansas City Center
Sun 06:52:33 PM 37.8894 -91.5883 222° Southwest 454 522 32,000  Level Kansas City Center
Sun 06:53:35 PM 37.7950 -91.6956 222° Southwest 452 520 32,000  Level Kansas City Center
Sun 06:54:37 PM 37.6992 -91.8025 221° Southwest 453 521 32,000  Level Kansas City Center
Sun 06:55:39 PM 37.6028 -91.9100 221° Southwest 455 524 32,000 48 Level Kansas City Center
Sun 06:56:41 PM 37.5053 -92.0194 222° Southwest 461 531 32,100  Climbing Kansas City Center
Sun 06:57:43 PM 37.4092 -92.1272 222° Southwest 460 529 32,000 -97 Descending Kansas City Center
Sun 06:58:45 PM 37.3139 -92.2319 221° Southwest 455 524 31,900 -48 Descending Kansas City Center
Sun 06:59:47 PM 37.1994 -92.3567 221° Southwest 452 520 31,900 48 Level Kansas City Center
Sun 07:00:49 PM 37.1031 -92.4619 221° Southwest 454 522 32,000 48 Climbing Kansas City Center
Sun 07:01:51 PM 37.0078 -92.5669 221° Southwest 454 522 32,000 48 Level Kansas City Center
Sun 07:02:53 PM 36.9114 -92.6708 221° Southwest 454 522 32,100 53 Climbing Kansas City Center
Sun 07:03:45 PM 36.8297 -92.7597 221° Southwest 461 531 32,100  Level Memphis Center
Sun 07:04:45 PM 36.7358 -92.8631 221° Southwest 461 531 32,100 -50 Level Memphis Center
Sun 07:05:45 PM 36.6381 -92.9661 220° Southwest 461 531 32,000 -100 Descending Memphis Center
Sun 07:06:45 PM 36.5419 -93.0689 221° Southwest 461 531 31,900 -50 Descending Memphis Center
Sun 07:07:45 PM 36.4461 -93.1664 219° Southwest 461 531 31,900  Level Memphis Center
Sun 07:08:45 PM 36.3458 -93.2633 218° Southwest 461 531 31,900 50 Level Memphis Center
Sun 07:09:45 PM 36.2394 -93.3497 213° Southwest 461 531 32,000 100 Climbing Memphis Center
Sun 07:10:45 PM 36.1353 -93.4383 214° Southwest 461 531 32,100 50 Climbing Memphis Center
Sun 07:11:45 PM 36.0267 -93.5292 214° Southwest 461 531 32,100 -50 Level Memphis Center
Sun 07:12:45 PM 35.9222 -93.6175 214° Southwest 461 531 32,000 -100 Descending Memphis Center
Sun 07:13:45 PM 35.8178 -93.7056 214° Southwest 461 531 31,900  Descending Memphis Center
Sun 07:14:45 PM 35.7111 -93.7933 214° Southwest 461 531 32,000  Climbing Memphis Center
Sun 07:15:45 PM 35.6064 -93.8808 214° Southwest 461 531 31,900 -50 Descending Memphis Center
Sun 07:16:45 PM 35.5017 -93.9683 214° Southwest 461 531 31,900 100 Level Memphis Center
Sun 07:17:45 PM 35.3800 -94.0672 214° Southwest 468 539 32,100 100 Climbing Memphis Center
Sun 07:18:45 PM 35.2750 -94.1567 215° Southwest 468 539 32,100  Level Memphis Center
Sun 07:19:45 PM 35.1700 -94.2436 214° Southwest 468 539 32,100 -50 Level Memphis Center
Sun 07:20:45 PM 35.0611 -94.3297 213° Southwest 468 539 32,000 -50 Descending Memphis Center
Sun 07:21:45 PM 34.9558 -94.4186 215° Southwest 468 539 32,000  Level Memphis Center
Sun 07:22:06 PM 34.9311 -94.4428 219° Southwest 455 524 32,000 74 Level Fort Worth Center
Sun 07:23:06 PM 34.8267 -94.5300 214° Southwest 450 518 32,100  Climbing Fort Worth Center
Sun 07:24:06 PM 34.7200 -94.6119 212° Southwest 450 518 32,000  Descending Fort Worth Center
Sun 07:25:06 PM 34.6156 -94.7011 215° Southwest 457 526 32,100  Climbing Fort Worth Center
Sun 07:26:06 PM 34.5069 -94.7853 213° Southwest 457 526 32,000 -100 Descending Fort Worth Center
Sun 07:27:06 PM 34.4042 -94.8689 214° Southwest 457 526 31,900  Descending Fort Worth Center
Sun 07:28:06 PM 34.3017 -94.9522 214° Southwest 457 526 32,000  Climbing Fort Worth Center
Sun 07:29:06 PM 34.1989 -95.0331 213° Southwest 457 526 31,900  Descending Fort Worth Center
Sun 07:30:06 PM 34.0836 -95.1239 213° Southwest 457 526 32,000 50 Climbing Fort Worth Center
Sun 07:31:06 PM 33.9808 -95.2044 213° Southwest 457 526 32,000  Level Fort Worth Center
Sun 07:32:06 PM 33.8778 -95.2869 214° Southwest 457 526 32,000 -50 Level Fort Worth Center
Sun 07:33:06 PM 33.7728 -95.3694 213° Southwest 451 519 31,900 -50 Descending Fort Worth Center
Sun 07:34:06 PM 33.6697 -95.4517 214° Southwest 451 519 31,900 100 Level Fort Worth Center
Sun 07:35:06 PM 33.5644 -95.5314 212° Southwest 451 519 32,100 100 Climbing Fort Worth Center
Sun 07:36:06 PM 33.4656 -95.6131 215° Southwest 451 519 32,100 -50 Level Fort Worth Center
Sun 07:37:06 PM 33.3603 -95.6925 212° Southwest 442 509 32,000 -50 Descending Fort Worth Center
Sun 07:38:06 PM 33.2672 -95.7636 213° Southwest 442 509 32,000 -50 Level Fort Worth Center
Sun 07:39:06 PM 33.1681 -95.8450 214° Southwest 442 509 31,900  Descending Fort Worth Center
Sun 07:40:06 PM 33.0647 -95.9236 213° Southwest 442 509 32,000 50 Climbing Fort Worth Center
Sun 07:41:06 PM 32.9592 -96.0022 212° Southwest 442 509 32,000  Level Fort Worth Center
Sun 07:42:06 PM 32.8578 -96.0828 214° Southwest 442 509 32,000 50 Level Fort Worth Center
Sun 07:43:06 PM 32.7458 -96.1686 213° Southwest 442 509 32,100  Climbing Fort Worth Center
Sun 07:44:06 PM 32.6400 -96.2464 212° Southwest 442 509 32,000 -50 Descending Fort Worth Center
Sun 07:45:06 PM 32.5364 -96.3267 213° Southwest 442 509 32,000 50 Level Fort Worth Center
Sun 07:46:06 PM 32.4347 -96.4042 213° Southwest 449 517 32,100 -150 Climbing Fort Worth Center
Sun 07:47:06 PM 32.3308 -96.4767 211° Southwest 444 511 31,700 -1,000 Descending Fort Worth Center
Sun 07:48:06 PM 32.2228 -96.5467 209° Southwest 444 511 30,100 -1,550 Descending Fort Worth Center
Sun 07:49:06 PM 32.1106 -96.6236 210° Southwest 453 521 28,600 -1,400 Descending Fort Worth Center
Sun 07:50:06 PM 32.0089 -96.6881 208° Southwest 463 533 27,300 -1,500 Descending Fort Worth Center
Sun 07:51:06 PM 31.8861 -96.7722 210° Southwest 463 533 25,600 -1,263 Descending Fort Worth Center
Sun 07:53:35 PM 31.6225 -96.9425 209° Southwest 459 528 22,900 -995 Descending Houston Center
Sun 07:54:37 PM 31.5117 -97.0144 209° Southwest 453 521 22,100 -774 Descending Houston Center
Sun 07:55:39 PM 31.4014 -97.0858 209° Southwest 450 518 21,300 -1,403 Descending Houston Center
Sun 07:56:41 PM 31.2744 -97.1669 209° Southwest 443 510 19,200 -1,887 Descending Houston Center
Sun 07:57:43 PM 31.1678 -97.2256 205° Southwest 425 489 17,400 -1,742 Descending Houston Center
Sun 07:58:45 PM 31.0581 -97.2681 198° South 413 475 15,600 -1,659 Descending Houston Center
Sun 07:59:46 PM 30.9644 -97.3047 199° South 399 459 14,000 -1,415 Descending Houston Center
Sun 08:00:48 PM 30.8506 -97.3492 199° South 362 417 12,700 -1,113 Descending Houston Center
Sun 08:01:50 PM 30.7686 -97.3908 204° Southwest 325 374 11,700 -1,306 Descending Houston Center
Sun 08:02:52 PM 30.6967 -97.4458 213° Southwest 307 353 10,000 -1,694 Descending Houston Center
Sun 08:03:54 PM 30.6261 -97.5003 214° Southwest 304 350 8,200 -1,548 Descending Houston Center
Sun 08:04:56 PM 30.5583 -97.5544 215° Southwest 296 341 6,800 -1,258 Descending Houston Center
Sun 08:05:58 PM 30.4894 -97.5950 207° Southwest 281 323 5,600 -1,258 Descending Houston Center
Sun 08:07:00 PM 30.4228 -97.6253 201° Southwest 261 300 4,200 -1,355 Descending Houston Center

Login

Don't have an account? Register now (free) for customized features, flight alerts, and more!